Airports

 

 

Airport Name Latest METAR Visual Conditions
Atlantic City Int. (ACY) KACY 082354Z 16008KT 10SM CLR 27/22 A2997 RMK AO2 SLP147 T02670222 10306 20267 55003 VFR
Baltimore International Airport (BWI) KBWI 082354Z 16005KT 10SM FEW055 FEW160 SCT250 29/20 A2993 RMK AO2 SLP132 TCU DSNT SE T02940200 10322 20294 53000 VFR
Washington National Airport (DCA) KDCA 082352Z COR 13006KT 10SM FEW065 SCT250 29/18 A2993 RMK AO2 SLP135 CB DSNT SE MOV SE T02940178 10333 20294 53002 VFR
Dulles International Airport (IAD) KIAD 082352Z 15008KT 10SM CLR 29/20 A2993 RMK AO2 SLP130 T02940200 10328 20294 55000 VFR
Norfolk International Airport (ORF) KORF 082351Z 10005KT 10SM SCT019 28/23 A2991 RMK AO2 SLP128 T02780233 10322 20278 55005 VFR
Raleigh International Airport (RDU) KRDU 082351Z 05006KT 10SM SCT021 BKN085 BKN170 BKN250 26/22 A2989 RMK AO2 SLP117 CB DSNT SE 60000 T02610222 10317 20261 53007 VFR
Richmond International Airport (RIC) KRIC 082354Z 12008KT 10SM FEW040 FEW230 SCT300 28/22 A2992 RMK AO2 SLP135 T02780217 10317 20278 53001 VFR
Roanoke Regional Airport (ROA) KROA 082354Z 12010KT 10SM SCT160 29/19 A2997 RMK AO2 SLP134 T02940194 10322 20289 55000 VFR